Terminal Aerodrome Forecast
Issued by NWS New Orleans/Baton Rouge, LA

Home | Current Version | Previous Version | Text Only | Print | Product List | Glossary On
Versions: 1 2 3 4 5 6 7 8 9 10 11 12 13
000
FTUS44 KLIX 302300 RRA
TAFBTR
TAF
KBTR 302343Z 3100/3124 17007KT P6SM BKN008 BKN070
      TEMPO 3100/3102 4SM -RA OVC007
     FM310400 17006KT P6SM BKN090
     FM311600 14006KT P6SM SCT030=

USA.gov is the U.S. government's official web portal to all federal, state and local government web resources and services.